Sainte-Monique, Canada
Current Conditions -  °F | °C
As of 7:00 PM on Thursday 27 Nov 2014 (Local Time) from CYRQ Reporting Station
Broken Clouds Broken Clouds  
Wind Chill: 16°   Ceiling: 23000
Heat Index: 23°   Visibility: 9mi
Dew Point: 10°   Wind: 6mph
Humidity: 59%   Direction: 350°N
Pressure: 30.04"   Gusts: NA
Location:  46.18°N, 72.5°W
Report Text: CYRQ 280000Z AUTO 35005KT 9SM SCT200 BKN230 M05/M12 A3004 RMK SLP177
Loading
Personal Weather Stations






























Interactive Weather Map New forecast layout! Learn more

10-Day Weather Forecast

Advertisements
Track Severe Weather on mobile